Time;durP1;ratioP1;P1;durP2;ratioP2;P2;SDS_P1;SDS_P2;PMS_P1;PMS_P2;Temp;Humidity;BMP_temperature;BMP_pressure;BME280_temperature;BME280_humidity;BME280_pressure;Samples;Min_cycle;Max_cycle;Signal;HPM_P1;HPM_P2
2023/03/31 00:01:27;;;;;;;5.20;3.00;;;;;;;8.18;44.96;101524.02;109666;1269;1002610;-48
2023/03/31 00:04:03;;;;;;;5.20;3.60;;;;;;;8.18;45.31;101512.26;109721;1269;1003032;-48
2023/03/31 00:06:40;;;;;;;5.50;3.20;;;;;;;8.19;45.74;101509.67;109705;1276;1002044;-48
2023/03/31 00:09:14;;;;;;;4.80;3.10;;;;;;;8.21;46.55;101509.85;110432;1273;22136;-48
2023/03/31 00:11:44;;;;;;;4.50;3.10;;;;;;;8.24;46.98;101506.05;109613;1268;1002260;-48
2023/03/31 00:14:12;;;;;;;4.60;3.40;;;;;;;8.25;47.50;101508.48;110445;1269;23040;-48
2023/03/31 00:16:41;;;;;;;5.40;4.00;;;;;;;8.29;48.23;101499.49;110259;1277;22329;-48
2023/03/31 00:19:16;;;;;;;5.20;3.70;;;;;;;8.34;48.79;101499.33;109668;1276;1003170;-48
2023/03/31 00:21:50;;;;;;;4.70;3.40;;;;;;;8.42;49.07;101491.20;110441;1276;22146;-48
2023/03/31 00:24:18;;;;;;;6.50;4.00;;;;;;;8.51;49.02;101487.02;109678;1268;1002920;-48
2023/03/31 00:26:46;;;;;;;5.30;3.90;;;;;;;8.59;49.02;101488.92;110435;1268;22556;-48
2023/03/31 00:29:15;;;;;;;8.40;4.70;;;;;;;8.67;49.13;101486.12;110468;1268;22897;-48
2023/03/31 00:31:43;;;;;;;8.50;4.80;;;;;;;8.72;49.00;101480.23;110472;1268;22128;-48
2023/03/31 00:34:11;;;;;;;7.00;4.00;;;;;;;8.77;49.07;101472.60;110469;1273;22200;-48
2023/03/31 00:36:46;;;;;;;9.80;4.40;;;;;;;8.81;49.40;101471.05;109688;1269;1002536;-49
2023/03/31 00:39:16;;;;;;;7.10;3.90;;;;;;;8.84;49.79;101474.66;109736;1268;1002810;-48
2023/03/31 00:41:45;;;;;;;5.80;3.70;;;;;;;8.87;50.22;101472.59;109691;1269;1002127;-48
2023/03/31 00:44:21;;;;;;;5.70;4.10;;;;;;;8.89;50.98;101468.08;110445;1268;22234;-48
2023/03/31 00:46:54;;;;;;;6.00;3.40;;;;;;;8.92;51.74;101463.90;110426;1268;22406;-49
2023/03/31 00:49:25;;;;;;;4.90;3.50;;;;;;;8.98;52.40;101460.77;110297;1274;22356;-49
2023/03/31 00:51:54;;;;;;;5.10;3.80;;;;;;;9.07;53.01;101453.83;109684;1276;1002428;-49
2023/03/31 00:54:24;;;;;;;6.10;3.60;;;;;;;9.17;53.48;101453.59;110390;1276;22284;-49
2023/03/31 00:56:54;;;;;;;8.10;3.80;;;;;;;9.25;53.74;101449.40;109662;1276;1003040;-49
2023/03/31 00:59:26;;;;;;;5.00;3.40;;;;;;;9.32;53.57;101448.66;110326;1269;22297;-49
2023/03/31 01:01:57;;;;;;;5.10;3.70;;;;;;;9.39;53.46;101448.10;110475;1268;22397;-48
2023/03/31 01:04:29;;;;;;;7.10;3.10;;;;;;;9.45;53.48;101444.25;110319;1271;22284;-49
2023/03/31 01:07:08;;;;;;;5.00;3.80;;;;;;;9.52;53.49;101444.89;110428;1269;22037;-49
2023/03/31 01:09:37;;;;;;;7.80;3.30;;;;;;;9.59;53.52;101442.94;110367;1268;22525;-48
2023/03/31 01:12:07;;;;;;;5.30;3.60;;;;;;;9.66;53.54;101441.86;110242;1269;22308;-49
2023/03/31 01:14:36;;;;;;;7.10;3.60;;;;;;;9.71;53.33;101442.87;110408;1276;22142;-49
2023/03/31 01:17:08;;;;;;;8.20;3.50;;;;;;;9.73;53.15;101441.46;110172;1276;22284;-49
2023/03/31 01:19:55;;;;;;;5.00;3.70;;;;;;;9.76;52.90;101442.14;110128;1273;22326;-49
2023/03/31 01:22:45;;;;;;;4.00;2.90;;;;;;;9.78;52.37;101443.33;109701;1276;1003020;-48
2023/03/31 01:25:32;;;;;;;5.00;3.20;;;;;;;9.83;51.72;101437.58;109746;1276;1002306;-49
2023/03/31 01:28:28;;;;;;;7.70;3.60;;;;;;;9.88;51.26;101435.63;110456;1273;22401;-49
2023/03/31 01:31:25;;;;;;;9.40;3.50;;;;;;;9.92;50.74;101431.61;110434;1268;22380;-48
2023/03/31 01:34:16;;;;;;;5.40;3.40;;;;;;;9.93;50.16;101431.78;110453;1268;22139;-48
2023/03/31 01:36:47;;;;;;;5.80;3.20;;;;;;;9.93;49.40;101429.88;110404;1276;22257;-49
2023/03/31 01:39:40;;;;;;;5.70;3.50;;;;;;;9.92;48.81;101425.38;110442;1269;23073;-48
2023/03/31 01:42:18;;;;;;;3.60;2.90;;;;;;;9.89;48.14;101411.02;109369;1273;1003285;-47
2023/03/31 01:44:56;;;;;;;6.30;3.70;;;;;;;9.84;47.79;101409.33;110456;1268;22137;-49
2023/03/31 01:47:30;;;;;;;6.30;3.60;;;;;;;9.80;47.57;101405.20;110382;1270;22196;-48
2023/03/31 01:50:04;;;;;;;5.10;3.50;;;;;;;9.75;47.56;101399.35;110201;1271;22343;-48
2023/03/31 01:52:45;;;;;;;5.50;3.50;;;;;;;9.72;47.61;101398.52;109307;1278;1002148;-48
2023/03/31 01:55:18;;;;;;;5.20;3.40;;;;;;;9.68;47.78;101396.45;110138;1273;22148;-48
2023/03/31 01:57:53;;;;;;;6.10;3.40;;;;;;;9.65;47.80;101393.38;109469;1271;1002456;-49
2023/03/31 02:00:28;;;;;;;4.80;3.10;;;;;;;9.60;47.87;101393.23;110035;1274;22322;-49
2023/03/31 02:03:16;;;;;;;5.80;3.50;;;;;;;9.56;48.01;101392.91;110033;1278;22776;-48
2023/03/31 02:05:48;;;;;;;4.30;3.70;;;;;;;9.52;48.10;101393.81;110002;1275;22345;-48
2023/03/31 02:08:45;;;;;;;4.50;3.60;;;;;;;9.47;48.29;101388.99;109343;1279;1002937;-48
2023/03/31 02:11:13;;;;;;;6.20;3.90;;;;;;;9.44;48.56;101390.77;109814;1284;22415;-48
2023/03/31 02:13:45;;;;;;;;;;;;;;;9.42;48.70;101390.42;109657;1284;22456;-48
2023/03/31 02:16:17;;;;;;;6.20;3.80;;;;;;;9.41;48.73;101389.73;109824;1279;22140;-48
2023/03/31 02:18:47;;;;;;;6.20;3.90;;;;;;;9.43;48.83;101393.35;109631;1284;22188;-48
2023/03/31 02:21:15;;;;;;;5.20;3.90;;;;;;;9.45;48.99;101386.77;109906;1282;22534;-48
2023/03/31 02:23:44;;;;;;;5.20;4.30;;;;;;;9.47;49.13;101386.05;109209;1282;1002474;-48
2023/03/31 02:26:20;;;;;;;6.30;4.70;;;;;;;9.49;49.14;101382.23;109155;1282;1002809;-48
2023/03/31 02:28:49;;;;;;;5.50;3.90;;;;;;;9.48;49.45;101382.23;109969;1276;22798;-49
2023/03/31 02:31:22;;;;;;;6.20;4.00;;;;;;;9.47;49.51;101380.35;109946;1280;22849;-48
2023/03/31 02:33:52;;;;;;;4.40;4.00;;;;;;;9.44;49.56;101380.02;109955;1276;22151;-49
2023/03/31 02:36:20;;;;;;;7.30;4.20;;;;;;;9.41;49.57;101375.36;109925;1275;22473;-48
2023/03/31 02:38:59;;;;;;;7.90;4.20;;;;;;;9.38;49.61;101373.99;109961;1282;22381;-49
2023/03/31 02:41:28;;;;;;;5.50;4.50;;;;;;;9.34;49.46;101372.48;109211;1282;1002236;-49
2023/03/31 02:43:56;;;;;;;6.30;4.50;;;;;;;9.31;49.44;101371.61;109153;1283;1002516;-48
2023/03/31 02:46:25;;;;;;;7.30;4.50;;;;;;;9.30;49.59;101369.21;109801;1279;22340;-48
2023/03/31 02:48:55;;;;;;;7.80;4.40;;;;;;;9.30;49.61;101363.84;110305;1268;22801;-48
2023/03/31 02:51:41;;;;;;;5.40;4.00;;;;;;;9.33;49.58;101364.86;110499;1268;22458;-48
2023/03/31 02:54:19;;;;;;;6.00;4.40;;;;;;;9.36;49.36;101363.97;110427;1276;22080;-48
2023/03/31 02:57:20;;;;;;;5.00;4.30;;;;;;;9.39;49.33;101360.30;109709;1268;1002538;-48
2023/03/31 03:00:11;;;;;;;7.40;4.50;;;;;;;9.40;49.15;101359.09;110411;1273;22974;-48
2023/03/31 03:02:43;;;;;;;6.90;4.20;;;;;;;9.40;48.94;101358.40;109523;1278;1002833;-48
2023/03/31 03:05:27;;;;;;;5.40;4.10;;;;;;;9.39;48.78;101352.17;109419;1278;1002791;-48
2023/03/31 03:08:35;;;;;;;5.20;4.30;;;;;;;9.37;49.05;101349.07;110031;1268;22169;-48
2023/03/31 03:11:03;;;;;;;6.50;4.00;;;;;;;9.35;49.03;101347.53;110130;1274;22136;-48
2023/03/31 03:13:53;;;;;;;5.00;4.00;;;;;;;9.33;49.22;101345.82;110096;1273;22156;-48
2023/03/31 03:16:27;;;;;;;5.50;4.70;;;;;;;9.30;49.24;101344.27;109325;1275;1002410;-48
2023/03/31 03:18:58;;;;;;;5.90;4.30;;;;;;;9.29;49.34;101340.48;110174;1272;23180;-48
2023/03/31 03:21:31;;;;;;;11.30;4.60;;;;;;;9.29;49.52;101340.31;110178;1273;22382;-48
2023/03/31 03:24:00;;;;;;;5.30;4.10;;;;;;;9.30;49.53;101342.54;110302;1273;22149;-48
2023/03/31 03:26:29;;;;;;;5.60;4.30;;;;;;;9.34;49.38;101340.44;110302;1278;23013;-48
2023/03/31 03:28:57;;;;;;;7.10;4.90;;;;;;;9.37;49.05;101335.21;110281;1278;22125;-48
2023/03/31 03:31:25;;;;;;;5.60;4.50;;;;;;;9.39;48.75;101332.25;110336;1270;22209;-48
2023/03/31 03:33:54;;;;;;;5.20;4.00;;;;;;;9.41;48.62;101329.13;110330;1269;22412;-48
2023/03/31 03:36:23;;;;;;;7.70;4.50;;;;;;;9.42;48.66;101322.71;110206;1269;22999;-48
2023/03/31 03:38:54;;;;;;;7.20;4.60;;;;;;;9.42;48.59;101322.71;110443;1272;22393;-48
2023/03/31 03:41:22;;;;;;;7.60;4.20;;;;;;;9.41;48.73;101323.23;110460;1268;22905;-48
2023/03/31 03:43:50;;;;;;;8.20;4.80;;;;;;;9.41;48.85;101318.05;109725;1268;1003110;-48
2023/03/31 03:46:19;;;;;;;6.70;4.70;;;;;;;9.39;48.70;101315.12;110468;1268;22541;-48
2023/03/31 03:48:52;;;;;;;4.10;3.60;;;;;;;9.38;48.49;101312.52;110451;1276;22897;-48
2023/03/31 03:51:20;;;;;;;8.20;5.00;;;;;;;9.36;48.37;101307.70;110509;1268;22337;-49
2023/03/31 03:53:49;;;;;;;9.50;4.50;;;;;;;9.36;48.24;101301.64;110501;1269;22272;-48
2023/03/31 03:56:17;;;;;;;8.90;4.60;;;;;;;9.37;48.45;101296.27;110460;1268;22303;-48
2023/03/31 03:58:46;;;;;;;7.10;4.40;;;;;;;9.37;48.57;101295.39;110461;1276;22239;-48
2023/03/31 04:01:21;;;;;;;7.30;4.50;;;;;;;9.39;48.71;101293.64;110490;1268;22277;-48
2023/03/31 04:03:50;;;;;;;6.30;4.10;;;;;;;9.43;48.86;101297.77;110459;1268;23024;-48
2023/03/31 04:06:18;;;;;;;6.90;4.50;;;;;;;9.48;48.87;101290.80;110181;1276;22125;-49
2023/03/31 04:08:47;;;;;;;8.60;4.90;;;;;;;9.53;48.99;101290.05;110489;1268;22292;-48
2023/03/31 04:11:18;;;;;;;5.30;4.50;;;;;;;9.58;48.78;101284.64;110008;1276;216979;-48
2023/03/31 04:13:47;;;;;;;7.10;4.10;;;;;;;9.62;48.69;101284.60;110445;1268;22120;-48
2023/03/31 04:16:16;;;;;;;7.50;3.80;;;;;;;9.66;48.39;101280.06;110443;1276;22139;-48
2023/03/31 04:18:45;;;;;;;8.70;3.60;;;;;;;9.70;48.08;101279.85;110434;1273;22809;-48
2023/03/31 04:21:21;;;;;;;7.20;3.60;;;;;;;9.71;48.00;101276.38;109401;1273;1003102;-48
2023/03/31 04:23:57;;;;;;;5.40;3.70;;;;;;;9.72;47.90;101273.42;110464;1268;23116;-48
2023/03/31 04:26:37;;;;;;;7.30;3.90;;;;;;;9.73;48.11;101272.02;110502;1268;22287;-48
2023/03/31 04:29:06;;;;;;;8.50;4.30;;;;;;;9.74;48.50;101268.71;110506;1268;22114;-48
2023/03/31 04:31:37;;;;;;;6.70;4.10;;;;;;;9.76;49.01;101268.19;110176;1273;22148;-48
2023/03/31 04:34:11;;;;;;;;;;;;;;;9.77;49.49;101264.70;110468;1268;22416;-49
2023/03/31 04:36:48;;;;;;;11.40;4.20;;;;;;;9.80;50.08;101263.12;110478;1276;22398;-49
2023/03/31 04:39:23;;;;;;;8.70;4.90;;;;;;;9.84;50.86;101261.51;110513;1268;22614;-48
2023/03/31 04:41:57;;;;;;;6.90;3.80;;;;;;;9.90;51.37;101260.76;110486;1269;22863;-49
2023/03/31 04:44:26;;;;;;;7.10;3.40;;;;;;;9.98;51.67;101257.04;110472;1269;23120;-48
2023/03/31 04:46:54;;;;;;;7.10;4.20;;;;;;;10.05;51.92;101255.72;110383;1271;23205;-49
2023/03/31 04:49:23;;;;;;;9.80;4.20;;;;;;;10.14;51.89;101253.77;110487;1276;22327;-49
2023/03/31 04:51:52;;;;;;;7.70;4.10;;;;;;;10.20;51.92;101250.90;110470;1276;22515;-48
2023/03/31 04:54:24;;;;;;;8.60;4.20;;;;;;;10.27;52.18;101249.60;109689;1268;1002214;-48
2023/03/31 04:56:53;;;;;;;9.40;3.50;;;;;;;10.32;52.31;101247.80;110503;1268;22342;-49
2023/03/31 04:59:22;;;;;;;9.80;3.70;;;;;;;10.36;52.24;101245.33;110523;1268;22220;-48
2023/03/31 05:01:50;;;;;;;6.20;3.30;;;;;;;10.41;52.17;101245.42;110474;1268;22711;-49
2023/03/31 05:04:20;;;;;;;4.80;3.30;;;;;;;10.47;52.07;101243.44;109719;1275;1002787;-48
2023/03/31 05:06:48;;;;;;;7.10;3.50;;;;;;;10.53;51.77;101241.10;110492;1276;22314;-49
2023/03/31 05:09:16;;;;;;;11.10;3.90;;;;;;;10.59;51.29;101240.84;110495;1268;23039;-48
2023/03/31 05:11:45;;;;;;;5.90;3.60;;;;;;;10.65;50.64;101234.17;110479;1268;22409;-48
2023/03/31 05:14:13;;;;;;;7.50;3.50;;;;;;;10.69;50.49;101238.45;110525;1268;22124;-49
2023/03/31 05:16:42;;;;;;;10.90;3.20;;;;;;;10.72;50.78;101229.73;110392;1270;22414;-48
2023/03/31 05:19:10;;;;;;;8.50;3.50;;;;;;;10.75;51.28;101227.77;110448;1268;22939;-48
2023/03/31 05:21:38;;;;;;;4.80;2.50;;;;;;;10.77;51.42;101232.25;109770;1268;1002346;-48
2023/03/31 05:24:07;;;;;;;5.70;2.70;;;;;;;10.80;51.06;101226.66;110449;1269;22135;-49
2023/03/31 05:26:36;;;;;;;6.70;2.90;;;;;;;10.81;51.04;101220.56;110494;1276;22397;-49
2023/03/31 05:29:06;;;;;;;5.90;2.60;;;;;;;10.84;50.97;101217.92;110272;1276;22351;-49
2023/03/31 05:31:34;;;;;;;5.70;3.10;;;;;;;10.88;51.02;101223.76;110536;1268;22098;-47
2023/03/31 05:34:03;;;;;;;7.20;2.50;;;;;;;10.92;51.12;101222.80;110507;1268;22148;-47
2023/03/31 05:36:33;;;;;;;6.90;2.60;;;;;;;10.97;51.26;101224.84;110507;1273;22390;-48
2023/03/31 05:39:10;;;;;;;5.80;2.50;;;;;;;11.00;51.35;101222.69;109808;1268;1002877;-48
2023/03/31 05:41:39;;;;;;;5.80;2.80;;;;;;;11.03;51.26;101219.17;110319;1276;22290;-49
2023/03/31 05:44:07;;;;;;;7.20;2.60;;;;;;;11.04;51.02;101225.23;110500;1268;22113;-49
2023/03/31 05:46:36;;;;;;;7.30;2.40;;;;;;;11.05;51.17;101212.89;110471;1276;22145;-48
2023/03/31 05:49:05;;;;;;;7.20;2.30;;;;;;;11.08;51.36;101211.11;109751;1276;1002711;-48
2023/03/31 05:51:34;;;;;;;4.90;2.30;;;;;;;11.12;51.78;101203.92;109797;1268;1002784;-48
2023/03/31 05:54:02;;;;;;;5.90;2.50;;;;;;;11.19;52.20;101198.94;110513;1273;22513;-49
2023/03/31 05:56:31;;;;;;;8.80;2.50;;;;;;;11.35;52.65;101201.95;110171;1273;22285;-48
2023/03/31 05:59:00;;;;;;;9.50;2.90;;;;;;;11.57;52.90;101203.11;110517;1268;22314;-49
2023/03/31 06:01:28;;;;;;;12.10;2.80;;;;;;;11.82;52.91;101205.10;109715;1268;1002722;-49
2023/03/31 06:03:57;;;;;;;5.90;2.60;;;;;;;12.09;52.43;101200.88;110502;1269;22402;-49
2023/03/31 06:06:26;;;;;;;5.00;1.90;;;;;;;12.43;51.70;101201.20;110534;1268;22268;-49
2023/03/31 06:08:56;;;;;;;12.40;3.20;;;;;;;12.83;51.06;101194.67;110482;1276;22343;-49
2023/03/31 06:11:25;;;;;;;7.70;2.70;;;;;;;13.25;50.32;101194.71;110374;1276;23018;-49
2023/03/31 06:13:53;;;;;;;5.70;2.70;;;;;;;13.64;49.73;101195.57;110469;1276;22876;-49
2023/03/31 06:16:22;;;;;;;6.80;2.60;;;;;;;14.02;49.36;101193.27;110182;1276;22283;-49
2023/03/31 06:18:52;;;;;;;6.50;2.70;;;;;;;14.37;48.82;101196.45;110536;1268;22919;-48
2023/03/31 06:21:20;;;;;;;7.60;1.90;;;;;;;14.64;48.13;101190.71;110353;1271;22635;-49
2023/03/31 06:23:49;;;;;;;6.20;2.40;;;;;;;14.85;47.73;101183.06;110508;1273;22556;-49
2023/03/31 06:26:17;;;;;;;7.40;3.00;;;;;;;14.98;46.96;101181.05;110468;1268;22175;-49
2023/03/31 06:28:46;;;;;;;6.80;2.90;;;;;;;15.03;46.38;101182.27;110502;1269;22834;-49
2023/03/31 06:31:16;;;;;;;11.10;2.60;;;;;;;15.00;46.39;101179.60;110567;1268;22271;-48
2023/03/31 06:33:45;;;;;;;8.80;2.50;;;;;;;14.95;46.22;101183.81;110509;1268;22284;-49
2023/03/31 06:36:15;;;;;;;6.30;2.50;;;;;;;14.84;46.12;101180.84;110524;1276;22294;-49
2023/03/31 06:38:45;;;;;;;7.90;2.50;;;;;;;14.71;46.74;101179.13;110539;1268;22385;-49
2023/03/31 06:41:13;;;;;;;5.10;2.40;;;;;;;14.61;46.91;101184.33;110207;1274;22421;-49
2023/03/31 06:43:41;;;;;;;8.10;2.70;;;;;;;14.52;47.04;101182.19;110491;1274;22131;-49
2023/03/31 06:46:10;;;;;;;7.30;2.40;;;;;;;14.41;47.43;101179.59;110519;1268;22740;-48
2023/03/31 06:48:40;;;;;;;8.30;2.70;;;;;;;14.29;47.62;101175.02;109723;1269;1002594;-49
2023/03/31 06:51:10;;;;;;;8.80;2.60;;;;;;;14.18;47.80;101174.65;109688;1269;1002592;-49
2023/03/31 06:53:38;;;;;;;11.00;3.10;;;;;;;14.10;48.08;101173.16;110542;1268;23155;-49
2023/03/31 06:56:06;;;;;;;7.80;2.90;;;;;;;14.05;48.43;101175.40;110520;1268;22315;-49
2023/03/31 06:58:36;;;;;;;12.90;3.00;;;;;;;14.02;49.05;101172.52;110487;1269;22433;-48
2023/03/31 07:01:05;;;;;;;8.40;3.10;;;;;;;14.01;49.60;101174.48;110504;1268;23287;-49
2023/03/31 07:03:42;;;;;;;7.80;2.90;;;;;;;14.03;49.58;101175.81;110223;1271;22247;-49
2023/03/31 07:06:11;;;;;;;6.30;2.40;;;;;;;14.05;49.67;101174.70;110524;1276;22209;-50
2023/03/31 07:08:40;;;;;;;7.10;2.40;;;;;;;14.07;49.77;101170.98;110495;1274;23145;-49
2023/03/31 07:11:08;;;;;;;9.40;3.00;;;;;;;14.08;49.75;101162.57;110521;1273;22992;-49
2023/03/31 07:13:40;;;;;;;11.50;3.90;;;;;;;14.09;49.79;101165.34;110513;1268;22301;-49
2023/03/31 07:16:12;;;;;;;11.70;3.30;;;;;;;14.10;49.70;101160.75;110372;1276;22926;-49
2023/03/31 07:18:41;;;;;;;10.60;3.20;;;;;;;14.12;49.71;101163.14;110167;1276;22438;-49
2023/03/31 07:21:09;;;;;;;9.20;3.40;;;;;;;14.13;49.61;101160.49;109473;1275;1002910;-49
2023/03/31 07:23:38;;;;;;;6.50;2.70;;;;;;;14.14;49.80;101160.84;110517;1269;22298;-48
2023/03/31 07:26:07;;;;;;;9.30;3.80;;;;;;;14.15;49.81;101153.48;110524;1269;22179;-49
2023/03/31 07:28:35;;;;;;;8.10;3.10;;;;;;;14.17;49.85;101150.23;110331;1269;22421;-49
2023/03/31 07:31:10;;;;;;;7.70;2.70;;;;;;;14.22;49.93;101146.10;110505;1269;22873;-49
2023/03/31 07:33:39;;;;;;;9.40;2.80;;;;;;;14.26;49.94;101143.52;110492;1276;22148;-49
2023/03/31 07:36:08;;;;;;;6.70;2.90;;;;;;;14.30;49.83;101143.80;110343;1273;22593;-49
2023/03/31 07:38:45;;;;;;;10.30;3.40;;;;;;;14.31;49.74;101139.22;110494;1269;22120;-49
2023/03/31 07:41:16;;;;;;;16.80;3.60;;;;;;;14.28;49.75;101139.12;110536;1273;22272;-49
2023/03/31 07:43:45;;;;;;;7.50;2.80;;;;;;;14.24;49.76;101139.21;110526;1273;22140;-49
2023/03/31 07:46:21;;;;;;;11.90;3.90;;;;;;;14.21;50.04;101137.95;110592;1268;22418;-49
2023/03/31 07:48:50;;;;;;;9.80;3.20;;;;;;;14.18;50.13;101139.07;110520;1269;22347;-49
2023/03/31 07:51:20;;;;;;;13.40;3.90;;;;;;;14.17;50.39;101133.69;110499;1276;22387;-49
2023/03/31 07:53:51;;;;;;;8.30;2.80;;;;;;;14.18;50.45;101134.02;110518;1276;22340;-49
2023/03/31 07:56:22;;;;;;;12.70;3.70;;;;;;;14.19;50.65;101135.19;110515;1276;22383;-49
2023/03/31 07:58:54;;;;;;;11.70;3.70;;;;;;;14.19;50.77;101132.23;110502;1276;23195;-49
2023/03/31 08:01:25;;;;;;;14.90;4.10;;;;;;;14.21;50.91;101133.05;110529;1269;22193;-49
2023/03/31 08:03:54;;;;;;;9.30;3.70;;;;;;;14.22;50.80;101128.98;110353;1276;22632;-49
2023/03/31 08:06:24;;;;;;;9.40;3.30;;;;;;;14.24;50.93;101128.41;110525;1276;22882;-49
2023/03/31 08:08:52;;;;;;;13.10;4.30;;;;;;;14.26;50.93;101125.04;110565;1269;22288;-49
2023/03/31 08:11:22;;;;;;;10.00;3.80;;;;;;;14.26;51.07;101122.24;110487;1276;22275;-48
2023/03/31 08:13:51;;;;;;;11.50;3.90;;;;;;;14.23;51.33;101124.42;110517;1276;22346;-49
2023/03/31 08:16:20;;;;;;;11.90;3.90;;;;;;;14.21;51.52;101119.77;110512;1276;23312;-49
2023/03/31 08:18:49;;;;;;;10.00;4.00;;;;;;;14.22;51.80;101122.56;110502;1276;22141;-49
2023/03/31 08:21:17;;;;;;;10.60;3.40;;;;;;;14.23;52.06;101120.94;110491;1269;23010;-49
2023/03/31 08:23:53;;;;;;;11.20;3.50;;;;;;;14.25;52.18;101119.66;110496;1271;22275;-49
2023/03/31 08:26:26;;;;;;;19.60;5.00;;;;;;;14.28;52.53;101114.70;110489;1274;22120;-50
2023/03/31 08:28:56;;;;;;;14.10;4.30;;;;;;;14.33;52.62;101108.61;110252;1269;22157;-49
2023/03/31 08:31:27;;;;;;;15.20;4.30;;;;;;;14.37;52.52;101103.94;110510;1273;22799;-50
2023/03/31 08:33:56;;;;;;;14.00;4.20;;;;;;;14.37;52.47;101094.88;110478;1276;22921;-49
2023/03/31 08:36:28;;;;;;;10.80;3.90;;;;;;;14.36;52.51;101091.25;110468;1276;22105;-50
2023/03/31 08:38:56;;;;;;;15.30;4.80;;;;;;;14.34;52.59;101089.89;110202;1276;23004;-49
2023/03/31 08:41:27;;;;;;;14.90;4.60;;;;;;;14.33;52.79;101084.52;110498;1276;22125;-49
2023/03/31 08:43:55;;;;;;;11.00;4.20;;;;;;;14.36;52.90;101082.15;110523;1270;22901;-50
2023/03/31 08:46:24;;;;;;;18.90;4.70;;;;;;;14.39;52.87;101077.17;110300;1274;22401;-49
2023/03/31 08:48:56;;;;;;;12.90;4.90;;;;;;;14.45;52.79;101079.23;110272;1276;22344;-49
2023/03/31 08:51:40;;;;;;;8.80;3.70;;;;;;;14.50;52.67;101074.89;110277;1271;22759;-48
2023/03/31 08:54:16;;;;;;;14.50;4.50;;;;;;;14.54;52.57;101070.58;110458;1269;22132;-49
2023/03/31 08:56:49;;;;;;;13.00;4.80;;;;;;;14.56;52.43;101066.83;110325;1272;22743;-50
2023/03/31 08:59:30;;;;;;;10.50;4.20;;;;;;;14.57;52.43;101066.27;110285;1276;22123;-50
2023/03/31 09:02:01;;;;;;;11.20;4.80;;;;;;;14.58;52.37;101065.52;110228;1269;22351;-49
2023/03/31 09:04:52;;;;;;;15.30;4.80;;;;;;;14.60;52.38;101060.42;110247;1271;22148;-50
2023/03/31 09:07:33;;;;;;;12.90;4.40;;;;;;;14.64;52.29;101059.27;110519;1269;22421;-49
2023/03/31 09:10:27;;;;;;;12.30;4.40;;;;;;;14.68;52.19;101052.98;110487;1276;22093;-49
2023/03/31 09:13:05;;;;;;;13.90;4.20;;;;;;;14.72;51.96;101048.14;110041;1276;22483;-49
2023/03/31 09:15:55;;;;;;;13.00;4.00;;;;;;;14.74;51.84;101043.54;110433;1269;23077;-49
2023/03/31 09:18:29;;;;;;;9.00;4.00;;;;;;;14.74;51.80;101039.35;110419;1270;22124;-49
2023/03/31 09:21:10;;;;;;;10.70;4.30;;;;;;;14.73;51.84;101036.08;110417;1276;22292;-49
2023/03/31 09:23:50;;;;;;;12.60;4.20;;;;;;;14.72;51.78;101031.36;110430;1273;22241;-49
2023/03/31 09:26:45;;;;;;;12.90;4.50;;;;;;;14.73;51.75;101028.58;110320;1276;22483;-49
2023/03/31 09:29:39;;;;;;;11.60;4.50;;;;;;;14.72;51.83;101024.41;109928;1277;22309;-49
2023/03/31 09:32:13;;;;;;;16.20;4.40;;;;;;;14.73;51.98;101026.46;109634;1289;22970;-49
2023/03/31 09:34:41;;;;;;;17.50;5.60;;;;;;;14.75;51.91;101022.04;109612;1284;22663;-48
2023/03/31 09:37:10;;;;;;;13.80;5.00;;;;;;;14.79;51.87;101017.89;109454;1289;22343;-49
2023/03/31 09:39:40;;;;;;;14.70;4.20;;;;;;;14.81;51.72;101012.73;108774;1289;1002315;-49
2023/03/31 09:42:12;;;;;;;12.10;4.60;;;;;;;14.83;51.65;101006.23;109474;1289;22944;-49
2023/03/31 09:44:42;;;;;;;19.20;4.60;;;;;;;14.83;51.75;101004.63;109520;1282;22316;-49
2023/03/31 09:47:37;;;;;;;14.10;5.00;;;;;;;14.83;51.60;100999.05;109546;1289;22017;-49
2023/03/31 09:50:06;;;;;;;19.30;5.80;;;;;;;14.80;51.73;100999.33;109573;1283;22179;-49
2023/03/31 09:52:43;;;;;;;13.50;5.30;;;;;;;14.78;51.79;100996.24;108865;1284;1002135;-50
2023/03/31 09:55:22;;;;;;;16.40;4.80;;;;;;;14.76;51.86;100990.20;108787;1289;1003040;-49
2023/03/31 09:58:07;;;;;;;18.10;5.20;;;;;;;14.75;52.03;100986.06;109317;1282;22992;-49
2023/03/31 10:00:36;;;;;;;12.30;4.30;;;;;;;14.76;52.17;100982.89;109480;1285;22347;-49
2023/03/31 10:03:07;;;;;;;15.30;4.40;;;;;;;14.78;52.08;100982.28;109481;1289;22320;-49
2023/03/31 10:05:49;;;;;;;16.10;5.30;;;;;;;14.79;52.01;100977.34;109142;1283;23081;-49
2023/03/31 10:08:24;;;;;;;15.90;5.50;;;;;;;14.79;51.88;100978.04;109951;1276;22846;-49
2023/03/31 10:10:54;;;;;;;14.10;5.10;;;;;;;14.78;52.06;100976.49;110359;1272;22146;-49
2023/03/31 10:13:35;;;;;;;16.30;4.90;;;;;;;14.78;52.05;100971.09;110487;1270;22141;-50
2023/03/31 10:16:07;;;;;;;14.10;5.00;;;;;;;14.80;51.97;100974.87;110367;1272;22416;-49
2023/03/31 10:18:41;;;;;;;15.10;4.80;;;;;;;14.81;52.04;100970.14;110265;1274;22408;-49
2023/03/31 10:21:24;;;;;;;12.50;4.80;;;;;;;14.82;52.15;100966.44;109388;1270;1002278;-49
2023/03/31 10:23:53;;;;;;;12.20;4.90;;;;;;;14.85;51.90;100967.55;110230;1269;22320;-49
2023/03/31 10:26:25;;;;;;;12.90;5.30;;;;;;;14.88;51.85;100961.33;110503;1268;22417;-49
2023/03/31 10:28:54;;;;;;;;;;;;;;;14.90;51.83;100956.88;110425;1276;22387;-49
2023/03/31 10:31:32;;;;;;;11.20;4.80;;;;;;;14.92;51.78;100951.73;110336;1270;22109;-49
2023/03/31 10:34:08;;;;;;;12.40;5.50;;;;;;;14.93;51.65;100952.04;110495;1276;22364;-49
2023/03/31 10:36:38;;;;;;;17.30;5.50;;;;;;;14.96;51.59;100949.67;110411;1269;22387;-49
2023/03/31 10:39:06;;;;;;;13.40;5.00;;;;;;;14.98;51.61;100946.45;110201;1272;22857;-49
2023/03/31 10:41:35;;;;;;;14.20;5.30;;;;;;;15.01;51.49;100943.71;110455;1276;22373;-49
2023/03/31 10:44:03;;;;;;;18.30;5.20;;;;;;;15.05;51.43;100946.70;110489;1272;22413;-49
2023/03/31 10:46:42;;;;;;;15.50;5.80;;;;;;;15.10;51.32;100947.04;110246;1273;22819;-49
2023/03/31 10:49:38;;;;;;;13.30;5.50;;;;;;;15.13;51.30;100947.43;110468;1273;22139;-49
2023/03/31 10:52:24;;;;;;;17.10;6.20;;;;;;;15.18;51.16;100944.81;109958;1276;22307;-49
2023/03/31 10:55:02;;;;;;;13.70;6.60;;;;;;;15.19;51.20;100938.83;109942;1281;22324;-49
2023/03/31 10:57:37;;;;;;;19.90;5.60;;;;;;;15.19;51.14;100927.45;109884;1281;22152;-49
2023/03/31 11:00:14;;;;;;;19.10;5.60;;;;;;;15.21;51.38;100923.52;109948;1280;22356;-49
2023/03/31 11:03:02;;;;;;;13.20;5.40;;;;;;;15.27;51.41;100915.29;110061;1273;22386;-49
2023/03/31 11:05:41;;;;;;;11.90;5.70;;;;;;;15.35;51.31;100907.63;109949;1281;23034;-49
2023/03/31 11:08:12;;;;;;;15.70;5.90;;;;;;;15.41;50.99;100908.95;110012;1273;22309;-49
2023/03/31 11:11:05;;;;;;;19.90;6.30;;;;;;;15.43;50.92;100902.09;110059;1276;22768;-49
2023/03/31 11:13:47;;;;;;;16.90;7.20;;;;;;;15.46;50.78;100897.97;110017;1280;22123;-49
2023/03/31 11:16:21;;;;;;;21.10;5.60;;;;;;;15.45;50.82;100897.13;109941;1279;22174;-49
2023/03/31 11:18:52;;;;;;;17.30;5.90;;;;;;;15.42;50.92;100891.96;110048;1274;23052;-49
2023/03/31 11:21:42;;;;;;;17.40;6.00;;;;;;;15.40;50.84;100889.23;110073;1276;22977;-48
2023/03/31 11:24:14;;;;;;;13.60;5.00;;;;;;;15.39;50.95;100880.71;110010;1276;22122;-49
2023/03/31 11:26:59;;;;;;;14.20;5.60;;;;;;;15.40;51.07;100874.91;109951;1281;22185;-49
2023/03/31 11:29:35;;;;;;;19.40;6.00;;;;;;;15.41;51.04;100870.14;110291;1271;22301;-49
2023/03/31 11:32:27;;;;;;;13.10;5.80;;;;;;;15.41;50.81;100875.75;110491;1270;22296;-49
2023/03/31 11:35:36;;;;;;;22.70;7.80;;;;;;;15.37;50.87;100870.80;110427;1273;22868;-49
2023/03/31 11:38:23;;;;;;;18.10;6.30;;;;;;;15.33;51.12;100866.66;110524;1268;22969;-49
2023/03/31 11:41:07;;;;;;;16.70;6.10;;;;;;;15.27;51.20;100864.61;110481;1276;23087;-49
2023/03/31 11:43:49;;;;;;;16.80;5.90;;;;;;;15.25;51.28;100862.08;110388;1271;23055;-49
2023/03/31 11:46:23;;;;;;;14.20;5.70;;;;;;;15.24;51.45;100858.60;110344;1276;22129;-49